Time;durP1;ratioP1;P1;durP2;ratioP2;P2;SDS_P1;SDS_P2;PMS_P1;PMS_P2;Temp;Humidity;BMP_temperature;BMP_pressure;BME280_temperature;BME280_humidity;BME280_pressure;Samples;Min_cycle;Max_cycle;Signal;HPM_P1;HPM_P2
2021/06/28 00:01:31;;;;;;;8.75;6.68;;;19.70;69.20;;;19.54;53.59;95001.31;4861515;29;20206;-85
2021/06/28 00:03:58;;;;;;;7.20;6.50;;;19.70;69.30;;;19.49;53.84;94995.94;4790637;29;20277;-85
2021/06/28 00:08:31;;;;;;;6.82;6.22;;;19.60;69.30;;;19.44;53.61;95003.84;5149034;27;20635;-86
2021/06/28 00:10:58;;;;;;;7.20;6.50;;;19.60;69.20;;;19.42;53.60;95005.94;5077694;28;20663;-85
2021/06/28 00:13:24;;;;;;;7.47;6.78;;;19.50;69.40;;;19.39;53.89;95001.91;5086249;27;20420;-84
2021/06/28 00:15:51;;;;;;;6.82;6.22;;;19.50;69.40;;;19.37;53.96;95001.34;5074664;28;20214;-84
2021/06/28 00:18:20;;;;;;;7.00;6.30;;;19.50;69.60;;;19.33;54.34;95003.72;5023845;28;20210;-85
2021/06/28 00:20:48;;;;;;;7.40;6.22;;;19.40;69.80;;;19.30;54.14;94998.09;4900247;29;20223;-84
2021/06/28 00:23:14;;;;;;;6.78;6.18;;;19.50;69.70;;;19.28;54.01;94997.53;4829559;29;20300;-85
2021/06/28 00:25:41;;;;;;;7.43;6.72;;;19.40;69.70;;;19.25;54.39;95003.31;4635201;30;20255;-85
2021/06/28 00:30:45;;;;;;;7.10;6.40;;;19.40;69.80;;;19.21;54.41;95005.66;5150576;27;20616;-85
2021/06/28 00:33:20;;;;;;;6.90;6.18;;;19.30;70.20;;;19.17;54.74;95008.00;5096231;27;20204;-85
2021/06/28 00:35:47;;;;;;;8.18;6.55;;;19.30;70.70;;;19.16;54.39;95008.25;5070802;28;20202;-84
2021/06/28 00:38:14;;;;;;;8.45;7.18;;;19.30;70.10;;;19.15;54.71;95006.63;5008540;28;20263;-85
2021/06/28 00:40:44;;;;;;;7.15;6.45;;;19.30;70.20;;;19.14;55.01;95013.81;4975576;28;20239;-84
2021/06/28 00:43:12;;;;;;;11.57;6.95;;;19.30;70.30;;;19.12;54.61;95017.75;4875896;29;20311;-84
2021/06/28 00:45:41;;;;;;;8.73;6.43;;;19.20;70.10;;;19.08;54.56;95017.44;4863842;29;20248;-84
2021/06/28 00:48:15;;;;;;;8.98;6.57;;;19.20;70.20;;;19.04;54.90;95009.16;4705374;29;25685;-84
2021/06/28 00:52:40;;;;;;;6.47;5.80;;;19.20;70.40;;;18.95;54.68;95009.78;5151184;27;20966;-85
2021/06/28 00:55:09;;;;;;;6.57;5.97;;;19.20;70.00;;;18.92;54.84;95003.13;5080539;28;20234;-85
2021/06/28 00:57:36;;;;;;;7.55;6.75;;;19.10;70.20;;;18.90;54.47;95005.16;5076261;28;20206;-84
2021/06/28 01:00:07;;;;;;;7.55;6.82;;;19.00;70.00;;;18.87;54.86;95009.13;5096222;28;20214;-85
2021/06/28 01:02:34;;;;;;;7.03;6.38;;;19.00;70.50;;;18.82;55.14;95005.56;5078502;28;20202;-85
2021/06/28 01:05:05;;;;;;;8.20;7.22;;;19.00;70.20;;;18.78;54.93;95007.09;5025296;28;20229;-85
2021/06/28 01:07:31;;;;;;;6.78;6.18;;;19.00;70.50;;;18.77;55.28;95016.13;4957421;28;20221;-85
2021/06/28 01:09:58;;;;;;;7.60;6.90;;;18.90;70.50;;;18.75;55.07;95012.88;4884740;28;20268;-85
2021/06/28 01:14:22;;;;;;;7.68;6.25;;;18.80;70.60;;;18.68;55.42;95005.88;5142057;27;20657;-85
2021/06/28 01:16:50;;;;;;;8.25;6.93;;;18.90;70.50;;;18.67;55.70;95004.25;5069243;28;20208;-84
2021/06/28 01:19:26;;;;;;;7.65;6.95;;;18.80;70.60;;;18.63;55.52;95008.47;5089137;28;20228;-85
2021/06/28 01:21:55;;;;;;;7.18;6.43;;;18.80;71.40;;;18.60;55.22;95008.13;5026479;28;20653;-85
2021/06/28 01:24:21;;;;;;;7.82;6.65;;;18.80;70.60;;;18.55;55.56;95004.34;4999256;28;20232;-85
2021/06/28 01:26:48;;;;;;;8.63;6.50;;;18.70;70.50;;;18.54;55.27;95005.41;4977079;28;20203;-85
2021/06/28 01:29:14;;;;;;;6.32;5.78;;;18.70;70.70;;;18.53;55.49;95002.97;4898387;28;20234;-84
2021/06/28 01:31:41;;;;;;;7.45;6.75;;;18.80;70.80;;;18.48;55.77;95001.03;4778928;29;20277;-84
2021/06/28 01:36:04;;;;;;;7.45;6.40;;;18.70;70.90;;;18.42;55.19;95009.13;5151516;27;20608;-85
2021/06/28 01:38:31;;;;;;;7.43;6.72;;;18.60;70.60;;;18.39;55.48;95008.59;5120499;27;20209;-85
2021/06/28 01:40:58;;;;;;;8.05;7.25;;;18.60;70.80;;;18.38;55.99;95014.94;5104464;27;20215;-85
2021/06/28 01:43:25;;;;;;;8.13;7.32;;;18.50;71.00;;;18.35;55.66;95004.78;5160010;27;20346;-84
2021/06/28 01:45:55;;;;;;;8.15;7.38;;;18.50;71.10;;;18.33;56.08;95006.06;5110572;28;20305;-85
2021/06/28 01:48:23;;;;;;;8.10;7.13;;;18.50;71.90;;;18.31;56.09;95000.19;5025996;28;20212;-84
2021/06/28 01:50:51;;;;;;;8.23;7.43;;;18.50;71.60;;;18.31;56.25;95005.50;4863493;29;20248;-84
2021/06/28 01:53:18;;;;;;;8.18;7.38;;;18.50;71.80;;;18.30;55.89;95007.34;4684274;29;20218;-86
2021/06/28 01:55:45;;;;;;;8.45;7.18;;;18.40;71.60;;;18.27;56.64;94999.84;4469879;31;20255;-85
2021/06/28 01:58:19;;;;;;;7.93;7.07;;;18.50;71.90;;;18.27;56.65;95004.38;5151165;27;20383;-85
2021/06/28 02:00:53;;;;;;;8.13;7.32;;;18.40;71.80;;;18.26;56.77;95005.41;5056042;28;20263;-85
2021/06/28 02:03:23;;;;;;;8.80;7.90;;;18.40;72.50;;;18.23;56.62;95010.13;5045073;28;20735;-85
2021/06/28 02:05:56;;;;;;;9.05;7.88;;;18.40;72.40;;;18.20;56.82;95013.28;5039090;28;20211;-85
2021/06/28 02:08:30;;;;;;;9.13;7.43;;;18.30;72.50;;;18.16;56.29;95011.34;4984487;28;20245;-85
2021/06/28 02:11:01;;;;;;;9.57;6.97;;;18.40;72.00;;;18.14;56.36;95021.38;4948872;28;20737;-85
2021/06/28 02:13:36;;;;;;;9.10;7.53;;;18.30;72.00;;;18.09;56.81;95011.50;4936139;28;22390;-85
2021/06/28 02:16:04;;;;;;;8.45;7.38;;;18.30;72.00;;;18.08;56.61;95013.31;4677164;29;20681;-84
2021/06/28 02:20:15;;;;;;;7.88;6.95;;;18.20;71.80;;;18.03;56.19;95013.22;5134450;27;21153;-85
2021/06/28 02:22:42;;;;;;;7.65;6.93;;;18.20;72.70;;;18.01;56.73;95009.19;5092321;28;20200;-84
2021/06/28 02:25:11;;;;;;;8.25;7.45;;;18.30;71.90;;;18.01;56.46;95011.84;5089010;28;20237;-84
2021/06/28 02:27:41;;;;;;;8.07;7.28;;;18.20;72.20;;;17.99;56.87;95009.44;5022890;28;20201;-85
2021/06/28 02:30:12;;;;;;;7.93;7.05;;;18.10;72.50;;;17.97;56.73;95016.84;4966017;28;20658;-85
2021/06/28 02:32:40;;;;;;;9.77;7.25;;;18.10;72.30;;;17.96;56.94;95022.38;4922106;29;20250;-85
2021/06/28 02:35:11;;;;;;;8.40;7.60;;;18.10;72.20;;;17.92;56.90;95008.75;4878979;29;20281;-85
2021/06/28 02:37:39;;;;;;;8.43;7.60;;;18.10;72.30;;;17.92;56.81;95011.41;4737866;29;20251;-85
2021/06/28 02:40:16;;;;;;;9.75;7.63;;;18.10;73.20;;;17.91;56.82;95015.09;5134208;27;20411;-85
2021/06/28 02:42:43;;;;;;;10.15;8.00;;;18.00;72.10;;;17.88;56.93;95012.91;5109238;28;20204;-85
2021/06/28 02:45:10;;;;;;;9.18;7.57;;;18.00;72.10;;;17.86;56.95;95018.44;5082299;27;20234;-85
2021/06/28 02:47:38;;;;;;;8.00;7.20;;;18.00;72.30;;;17.84;57.27;95015.22;5074732;28;20571;-84
2021/06/28 02:50:10;;;;;;;9.23;7.90;;;18.00;72.60;;;17.82;57.13;95019.97;4991432;28;20246;-85
2021/06/28 02:52:38;;;;;;;8.45;7.65;;;18.00;73.10;;;17.82;57.30;95012.00;4947208;28;20215;-84
2021/06/28 02:55:08;;;;;;;8.23;7.40;;;17.90;72.50;;;17.81;57.29;95006.91;4911248;29;20224;-85
2021/06/28 02:57:34;;;;;;;8.10;7.28;;;17.90;72.80;;;17.76;57.38;94999.69;4779752;29;20205;-85
2021/06/28 03:01:44;;;;;;;8.93;7.55;;;17.90;72.60;;;17.73;57.18;94998.28;5150353;27;20623;-85
2021/06/28 03:04:11;;;;;;;8.90;7.43;;;17.90;72.50;;;17.75;57.49;94996.19;5112697;27;20228;-85
2021/06/28 03:06:37;;;;;;;9.55;7.90;;;17.90;72.60;;;17.75;57.37;94998.06;5113997;27;20562;-85
2021/06/28 03:09:04;;;;;;;8.07;7.28;;;17.90;72.60;;;17.74;57.19;95007.06;5106124;28;20390;-85
2021/06/28 03:11:30;;;;;;;7.63;6.93;;;17.80;72.70;;;17.74;57.34;94997.25;5104184;28;20206;-85
2021/06/28 03:13:57;;;;;;;8.80;7.90;;;17.80;72.90;;;17.73;57.32;94997.47;5058958;28;20305;-85
2021/06/28 03:16:24;;;;;;;8.52;7.63;;;17.80;72.90;;;17.72;57.30;94987.91;5006053;28;20232;-85
2021/06/28 03:18:51;;;;;;;9.05;7.55;;;17.80;73.00;;;17.74;57.81;94999.09;4905455;28;20704;-85
2021/06/28 03:23:25;;;;;;;8.50;7.70;;;17.80;73.10;;;17.72;57.36;95003.81;5150085;27;20630;-85
2021/06/28 03:25:52;;;;;;;9.32;8.43;;;17.90;73.00;;;17.74;57.50;95007.06;5108768;28;20630;-85
2021/06/28 03:28:19;;;;;;;12.07;7.90;;;17.80;73.20;;;17.73;57.85;95003.59;5088127;28;20276;-85
2021/06/28 03:30:46;;;;;;;8.70;7.65;;;17.80;73.20;;;17.81;57.78;95009.56;5083074;28;20206;-84
2021/06/28 03:33:13;;;;;;;9.40;8.07;;;17.90;73.50;;;17.80;57.91;95008.78;5028294;28;20299;-84
2021/06/28 03:35:39;;;;;;;8.57;7.72;;;17.80;73.50;;;17.88;57.74;95011.06;4891811;29;20232;-84
2021/06/28 03:38:07;;;;;;;9.07;8.18;;;18.00;73.80;;;17.92;58.21;95011.41;4880462;28;20203;-84
2021/06/28 03:40:34;;;;;;;10.27;9.27;;;17.90;73.80;;;17.96;58.24;95015.22;4716479;29;20467;-86
2021/06/28 03:45:10;;;;;;;9.05;8.07;;;17.90;74.00;;;18.05;58.28;95018.28;5116502;27;20577;-85
2021/06/28 03:47:37;;;;;;;8.90;8.05;;;18.00;74.20;;;18.11;58.29;95011.25;5079365;28;20209;-85
2021/06/28 03:50:07;;;;;;;9.02;8.13;;;18.10;74.20;;;18.18;58.24;95009.25;5051518;28;20249;-85
2021/06/28 03:52:33;;;;;;;9.30;7.35;;;18.10;74.40;;;18.26;58.17;95010.72;5022513;28;20215;-85
2021/06/28 03:55:02;;;;;;;10.15;8.40;;;18.10;74.30;;;18.32;58.28;95009.75;4995915;28;21174;-85
2021/06/28 03:57:29;;;;;;;9.45;8.48;;;18.10;74.60;;;18.38;58.56;95004.31;4997396;28;20200;-85
2021/06/28 03:59:55;;;;;;;9.57;7.50;;;18.20;74.60;;;18.48;58.59;95003.69;4907868;28;20313;-84
2021/06/28 04:02:23;;;;;;;9.35;8.27;;;18.30;74.80;;;18.57;58.55;95009.41;4756885;29;20217;-86
2021/06/28 04:07:18;;;;;;;10.15;9.15;;;18.40;74.90;;;18.75;58.46;95007.56;5149462;27;20866;-85
2021/06/28 04:09:45;;;;;;;9.35;8.45;;;18.50;75.00;;;18.83;58.51;95013.28;5096594;28;20221;-85
2021/06/28 04:12:12;;;;;;;9.18;8.27;;;18.60;75.00;;;18.93;58.50;95015.38;5087159;28;20303;-84
2021/06/28 04:14:40;;;;;;;9.23;8.32;;;18.60;75.00;;;19.04;58.53;95024.28;5027978;28;20230;-85
2021/06/28 04:17:07;;;;;;;9.88;8.90;;;18.70;75.10;;;19.13;58.55;95027.34;4987578;28;20280;-84
2021/06/28 04:19:34;;;;;;;9.35;8.45;;;18.80;75.20;;;19.19;58.24;95016.53;4868977;29;20732;-84
2021/06/28 04:22:01;;;;;;;9.68;8.70;;;18.90;75.20;;;19.30;58.30;95024.69;4745540;29;20293;-84
2021/06/28 04:24:27;;;;;;;10.10;8.65;;;19.00;75.20;;;19.36;58.14;95026.38;4628287;30;20265;-84
2021/06/28 04:27:05;;;;;;;10.27;8.75;;;19.00;75.10;;;19.45;58.47;95026.75;5150944;27;20386;-84
2021/06/28 04:29:32;;;;;;;9.55;8.65;;;19.10;75.30;;;19.52;58.42;95022.06;5080151;28;20278;-85
2021/06/28 04:31:59;;;;;;;9.70;8.70;;;19.20;75.20;;;19.57;58.12;95026.66;5106453;28;20196;-85
2021/06/28 04:34:26;;;;;;;10.27;8.65;;;19.30;75.20;;;19.63;58.71;95023.00;5057612;28;20237;-84
2021/06/28 04:36:53;;;;;;;10.63;8.82;;;19.30;75.20;;;19.66;58.50;95023.31;5023962;28;20209;-85
2021/06/28 04:39:20;;;;;;;9.93;8.90;;;19.40;75.10;;;19.69;58.16;95024.69;4920681;28;20238;-85
2021/06/28 04:41:47;;;;;;;12.77;8.82;;;19.40;75.00;;;19.74;58.16;95022.06;4908323;29;20212;-85
2021/06/28 04:44:14;;;;;;;9.00;8.20;;;19.50;75.10;;;19.79;58.74;95030.13;4818674;29;23448;-85
2021/06/28 04:48:01;;;;;;;9.82;8.90;;;19.60;75.30;;;19.86;58.13;95014.00;5151466;27;20972;-86
2021/06/28 04:50:28;;;;;;;9.88;8.73;;;19.60;75.00;;;19.95;58.24;95017.81;5106531;28;20212;-84
2021/06/28 04:52:56;;;;;;;9.95;8.82;;;19.70;75.20;;;20.04;58.39;95028.84;5096255;28;20280;-85
2021/06/28 04:55:25;;;;;;;9.77;8.77;;;19.80;75.20;;;20.11;58.56;95024.13;5087093;28;20225;-85
2021/06/28 04:57:52;;;;;;;9.48;8.48;;;19.80;76.20;;;20.22;58.30;95030.38;5061703;28;20210;-85
2021/06/28 05:00:24;;;;;;;9.38;8.45;;;19.80;75.40;;;20.31;58.46;95031.56;4991026;28;20593;-84
2021/06/28 05:02:52;;;;;;;9.20;8.30;;;19.90;75.40;;;20.40;58.51;95028.44;4865478;29;20279;-86
2021/06/28 05:05:19;;;;;;;10.07;8.95;;;20.10;75.40;;;20.50;58.12;95025.88;4751346;29;20385;-85
2021/06/28 05:07:57;;;;;;;10.02;8.65;;;20.10;75.40;;;20.60;58.19;95025.16;5150957;27;20375;-84
2021/06/28 05:10:23;;;;;;;9.55;8.52;;;20.20;75.30;;;20.70;58.23;95027.94;5087454;28;20226;-86
2021/06/28 05:12:50;;;;;;;9.70;8.80;;;20.30;75.20;;;20.81;58.25;95028.06;5084154;28;20284;-85
2021/06/28 05:15:16;;;;;;;9.50;8.60;;;20.40;75.20;;;20.89;58.11;95024.94;5067867;28;20233;-86
2021/06/28 05:17:43;;;;;;;10.07;9.07;;;20.50;75.10;;;20.99;57.73;95030.34;4991912;28;20197;-85
2021/06/28 05:20:12;;;;;;;13.32;9.52;;;20.60;75.20;;;21.09;58.26;95022.44;4974927;28;20596;-85
2021/06/28 05:22:40;;;;;;;10.45;9.27;;;20.70;76.00;;;21.19;57.70;95026.22;4938612;28;20233;-85
2021/06/28 05:25:09;;;;;;;15.80;10.27;;;20.70;75.00;;;21.30;57.39;95024.41;4816192;29;20249;-85
2021/06/28 05:27:46;;;;;;;9.38;8.43;;;20.80;75.00;;;21.41;57.80;95028.75;5151296;27;20379;-86
2021/06/28 05:30:16;;;;;;;9.85;8.85;;;20.90;75.00;;;21.51;57.38;95030.72;5109029;28;20216;-86
2021/06/28 05:32:42;;;;;;;8.88;8.07;;;21.00;74.70;;;21.63;57.15;95039.34;5083419;28;20241;-85
2021/06/28 05:35:11;;;;;;;8.65;7.75;;;21.10;74.70;;;21.75;57.43;95031.13;5050752;28;20691;-85
2021/06/28 05:37:39;;;;;;;9.98;8.98;;;21.20;74.60;;;21.85;57.02;95033.03;4987001;28;20216;-85
2021/06/28 05:40:08;;;;;;;9.15;8.25;;;21.40;74.40;;;21.95;57.11;95034.94;4933404;28;20308;-85
2021/06/28 05:42:35;;;;;;;9.77;8.10;;;21.50;74.20;;;22.03;56.54;95043.28;4832481;29;20665;-87
2021/06/28 05:45:03;;;;;;;8.25;7.45;;;21.50;73.90;;;22.11;56.91;95041.97;4557666;30;20245;-85
2021/06/28 05:48:43;;;;;;;7.60;6.90;;;21.60;74.10;;;22.20;56.25;95037.72;5147869;27;21161;-87
2021/06/28 05:51:10;;;;;;;8.13;7.35;;;21.70;73.70;;;22.28;55.91;95036.41;5092258;28;20257;-85
2021/06/28 05:53:38;;;;;;;8.73;7.93;;;21.80;73.80;;;22.38;56.07;95038.34;5106921;28;20681;-86
2021/06/28 05:56:07;;;;;;;8.38;7.43;;;21.90;73.90;;;22.45;56.21;95043.41;5082850;28;20202;-86
2021/06/28 05:58:33;;;;;;;7.90;7.15;;;21.90;73.60;;;22.52;55.73;95043.97;5035704;28;20217;-85
2021/06/28 06:01:00;;;;;;;7.82;7.15;;;22.00;73.30;;;22.57;55.81;95038.66;4955610;28;20207;-85
2021/06/28 06:03:27;;;;;;;8.50;7.20;;;22.10;74.30;;;22.62;56.21;95036.00;4921629;28;20295;-86
2021/06/28 06:05:54;;;;;;;7.85;7.15;;;22.20;73.70;;;22.69;55.75;95041.06;4724108;29;20591;-86
2021/06/28 06:09:54;;;;;;;7.13;6.43;;;22.20;73.20;;;22.75;55.49;95042.66;5137419;27;20658;-86
2021/06/28 06:12:21;;;;;;;8.15;7.45;;;22.30;73.00;;;22.79;55.06;95046.44;5071919;28;20209;-86
2021/06/28 06:14:47;;;;;;;8.63;7.63;;;22.30;72.80;;;22.83;55.26;95036.81;5086481;28;20232;-86
2021/06/28 06:17:13;;;;;;;8.38;7.57;;;22.40;72.90;;;22.90;55.18;95038.41;5079587;28;20216;-85
2021/06/28 06:19:41;;;;;;;9.27;7.47;;;22.40;72.70;;;22.95;55.31;95036.56;5056620;28;20306;-85
2021/06/28 06:22:08;;;;;;;9.57;7.85;;;22.50;72.90;;;23.03;54.88;95043.22;4976573;28;20224;-86
2021/06/28 06:24:35;;;;;;;7.45;6.75;;;22.50;72.90;;;23.10;54.91;95042.97;4988908;28;20228;-86
2021/06/28 06:27:01;;;;;;;8.85;7.53;;;22.60;72.70;;;23.18;55.14;95042.47;4846485;29;20215;-86
2021/06/28 06:31:21;;;;;;;7.90;7.10;;;22.70;72.80;;;23.28;54.99;95030.97;5151229;27;20932;-86
2021/06/28 06:33:48;;;;;;;8.60;7.70;;;22.70;73.10;;;23.38;55.04;95047.00;5112726;27;20224;-87
2021/06/28 06:36:15;;;;;;;8.25;7.43;;;22.80;72.60;;;23.46;54.63;95038.44;5093596;27;21349;-86
2021/06/28 06:38:41;;;;;;;8.10;7.30;;;22.90;72.60;;;23.55;54.40;95038.66;5089697;28;20242;-86
2021/06/28 06:41:08;;;;;;;8.20;7.45;;;23.00;72.40;;;23.62;54.25;95030.34;5034073;28;20254;-86
2021/06/28 06:43:34;;;;;;;8.02;7.22;;;23.00;72.30;;;23.71;54.33;95039.44;4938533;28;20247;-86
2021/06/28 06:46:01;;;;;;;7.40;6.70;;;23.10;73.30;;;23.79;54.47;95046.91;4943297;28;20207;-85
2021/06/28 06:48:28;;;;;;;7.50;6.80;;;23.20;72.40;;;23.86;54.41;95046.63;4754994;29;20216;-85
2021/06/28 06:52:03;;;;;;;7.43;6.40;;;23.30;72.30;;;23.98;53.98;95041.78;5151241;27;20631;-86
2021/06/28 06:54:30;;;;;;;7.28;6.68;;;23.40;71.80;;;24.05;53.53;95032.69;5129558;27;20259;-86
2021/06/28 06:56:56;;;;;;;6.45;5.85;;;23.40;71.80;;;24.14;53.63;95039.88;5106331;28;20205;-86
2021/06/28 06:59:23;;;;;;;7.88;7.07;;;23.50;72.70;;;24.22;53.73;95045.75;5075814;28;20238;-86
2021/06/28 07:01:49;;;;;;;6.90;6.25;;;23.60;72.00;;;24.33;53.91;95052.66;5053175;28;20582;-87
2021/06/28 07:04:16;;;;;;;7.75;7.05;;;23.70;71.80;;;24.43;53.51;95057.16;5019808;28;20245;-86
2021/06/28 07:06:43;;;;;;;7.00;6.40;;;23.70;71.50;;;24.52;53.35;95052.78;4972775;28;20218;-86
2021/06/28 07:09:14;;;;;;;7.38;6.68;;;23.80;71.50;;;24.63;53.32;95050.84;4868611;29;20235;-86
2021/06/28 07:13:49;;;;;;;6.70;6.00;;;23.90;71.60;;;24.76;53.28;95050.28;5147474;27;20669;-86
2021/06/28 07:16:18;;;;;;;6.43;5.82;;;24.10;71.30;;;24.88;52.50;95049.94;5082873;28;20199;-86
2021/06/28 07:18:48;;;;;;;6.70;6.15;;;24.20;70.90;;;24.97;52.79;95046.66;5079721;28;20313;-86
2021/06/28 07:21:14;;;;;;;6.50;5.90;;;24.30;70.60;;;25.03;52.84;95042.84;5066691;28;20209;-86
2021/06/28 07:23:41;;;;;;;6.07;5.45;;;24.30;71.00;;;25.16;52.47;95046.75;5016072;28;20251;-86
2021/06/28 07:26:08;;;;;;;6.50;5.90;;;24.40;70.70;;;25.23;52.31;95049.91;4930108;28;20212;-88
2021/06/28 07:28:34;;;;;;;7.40;6.72;;;24.50;70.70;;;25.32;52.34;95050.13;4865718;29;20220;-86
2021/06/28 07:31:02;;;;;;;7.95;6.50;;;24.60;70.40;;;25.40;51.96;95044.97;4777741;29;20218;-87
2021/06/28 07:33:41;;;;;;;6.80;6.15;;;24.60;70.50;;;25.50;52.20;95044.09;5147932;27;20396;-87
2021/06/28 07:36:10;;;;;;;7.63;6.93;;;24.80;70.30;;;25.63;51.46;95047.19;5109505;28;20204;-86
2021/06/28 07:38:38;;;;;;;6.28;5.68;;;24.90;70.20;;;25.72;51.34;95050.84;5068841;28;20198;-86
2021/06/28 07:41:06;;;;;;;6.72;5.70;;;24.90;69.80;;;25.78;51.35;95054.28;5030891;28;20665;-87
2021/06/28 07:43:34;;;;;;;7.20;6.18;;;25.00;69.60;;;25.88;50.83;95054.19;4967299;28;20217;-86
2021/06/28 07:46:03;;;;;;;11.50;6.25;;;25.10;69.20;;;25.95;50.79;95057.31;5010262;28;20738;-85
2021/06/28 07:48:30;;;;;;;6.43;5.93;;;25.20;69.40;;;26.02;50.70;95065.03;4967130;28;20212;-86
2021/06/28 07:50:58;;;;;;;6.07;5.47;;;25.30;69.30;;;26.11;50.57;95065.22;4807272;29;20229;-87
2021/06/28 07:53:36;;;;;;;6.32;5.72;;;25.30;69.20;;;26.16;50.60;95060.59;5148517;27;20374;-87
2021/06/28 07:56:14;;;;;;;6.28;5.68;;;25.40;69.20;;;26.25;49.97;95057.28;5126115;28;20209;-87
2021/06/28 07:58:50;;;;;;;6.63;6.00;;;25.50;69.20;;;26.36;50.11;95051.47;5086734;28;20218;-85
2021/06/28 08:01:17;;;;;;;5.43;4.93;;;25.60;68.70;;;26.46;50.08;95052.44;5030185;28;20207;-87
2021/06/28 08:03:45;;;;;;;6.38;5.78;;;25.70;68.50;;;26.55;49.99;95053.41;5019341;28;20228;-87
2021/06/28 08:06:18;;;;;;;6.20;5.57;;;25.70;68.70;;;26.61;49.73;95049.53;4958155;28;20586;-87
2021/06/28 08:08:50;;;;;;;6.20;5.60;;;25.80;68.40;;;26.75;49.63;95057.69;4912719;29;20344;-86
2021/06/28 08:14:04;;;;;;;5.57;5.07;;;25.90;68.10;;;26.97;49.17;95054.41;5145169;27;20682;-87
2021/06/28 08:16:31;;;;;;;5.93;5.43;;;26.10;68.10;;;27.09;49.42;95059.34;5095575;28;20208;-87
2021/06/28 08:18:58;;;;;;;5.90;5.40;;;26.20;68.10;;;27.16;49.35;95046.31;5056450;28;20264;-87
2021/06/28 08:21:35;;;;;;;5.75;5.25;;;26.30;68.10;;;27.30;48.64;95053.63;5063373;28;20273;-86
2021/06/28 08:24:02;;;;;;;5.75;5.25;;;26.40;67.90;;;27.39;48.93;95051.06;5015396;28;20223;-85
2021/06/28 08:26:29;;;;;;;5.70;5.18;;;26.50;67.70;;;27.50;48.80;95052.50;4958129;28;20232;-87
2021/06/28 08:28:56;;;;;;;6.55;5.95;;;26.60;67.50;;;27.57;48.47;95055.63;4926639;28;20346;-87
2021/06/28 08:34:01;;;;;;;5.47;5.07;;;26.70;67.60;;;27.76;47.80;95049.38;5145050;27;21169;-87
2021/06/28 08:36:27;;;;;;;5.85;5.07;;;26.90;67.00;;;27.83;48.07;95047.09;5084618;28;20240;-88
2021/06/28 08:38:55;;;;;;;6.05;5.45;;;27.00;66.90;;;27.93;47.88;95038.00;5053915;28;20899;-87
2021/06/28 08:41:23;;;;;;;5.57;5.07;;;27.10;66.60;;;28.00;47.24;95041.06;5068655;28;20201;-87
2021/06/28 08:43:49;;;;;;;4.85;4.45;;;27.10;66.60;;;28.08;47.11;95043.09;5050147;28;20231;-88
2021/06/28 08:46:17;;;;;;;5.68;5.18;;;27.20;66.30;;;28.15;47.10;95033.81;4982187;28;20236;-87
2021/06/28 08:48:45;;;;;;;5.47;5.07;;;27.30;66.10;;;28.23;47.15;95035.81;4952414;28;20313;-87
2021/06/28 08:51:20;;;;;;;4.93;4.47;;;27.40;66.30;;;28.31;47.20;95027.00;4798695;29;20456;-87
2021/06/28 08:53:58;;;;;;;5.38;4.97;;;27.40;66.10;;;28.38;47.61;95027.41;5145531;27;20398;-88
2021/06/28 08:56:24;;;;;;;5.15;4.70;;;27.50;66.00;;;28.46;46.80;95027.78;5089452;28;20254;-88
2021/06/28 08:58:51;;;;;;;4.93;4.53;;;27.60;65.90;;;28.52;46.23;95030.06;5073249;28;20237;-87
2021/06/28 09:01:18;;;;;;;5.15;4.72;;;27.60;66.60;;;28.59;45.72;95029.66;5067358;28;20305;-87
2021/06/28 09:03:45;;;;;;;5.15;4.75;;;27.70;65.20;;;28.65;45.75;95039.25;5047905;28;20287;-87
2021/06/28 09:06:16;;;;;;;4.82;4.43;;;27.80;65.20;;;28.70;46.05;95028.34;4945148;28;20613;-87
2021/06/28 09:09:34;;;;;;;4.80;4.35;;;27.80;65.00;;;28.79;46.08;95022.22;4929337;28;20244;-88
2021/06/28 09:14:24;;;;;;;10.57;5.13;;;27.90;65.30;;;28.94;45.19;95021.06;5142088;27;21174;-87
2021/06/28 09:16:51;;;;;;;5.00;4.60;;;28.00;64.40;;;29.02;45.45;95029.22;5086979;28;20565;-88
2021/06/28 09:19:19;;;;;;;4.47;4.13;;;28.10;64.20;;;29.10;45.17;95026.88;5082453;28;20272;-88
2021/06/28 09:21:55;;;;;;;4.57;4.18;;;28.20;64.50;;;29.18;45.10;95024.25;5072940;28;20322;-87
2021/06/28 09:24:37;;;;;;;5.07;4.43;;;28.30;64.40;;;29.28;45.45;95025.88;5018524;28;20242;-87
2021/06/28 09:27:09;;;;;;;5.20;4.70;;;28.40;64.30;;;29.38;44.29;95024.88;4938114;28;20298;-86
2021/06/28 09:29:45;;;;;;;4.82;4.45;;;28.40;63.30;;;29.45;44.04;95029.84;4936957;28;20309;-87
2021/06/28 09:32:54;;;;;;;4.93;4.53;;;28.50;63.60;;;29.54;44.58;95025.25;5151228;27;20599;-87
2021/06/28 09:35:36;;;;;;;4.57;4.18;;;28.60;63.80;;;29.66;44.76;95030.91;5052416;28;20235;-89
2021/06/28 09:38:38;;;;;;;5.00;4.60;;;28.70;64.10;;;29.81;44.83;95028.88;5084963;28;20211;-88
2021/06/28 09:41:21;;;;;;;4.75;4.35;;;28.80;64.00;;;29.98;43.73;95026.28;5040807;28;20603;-88
2021/06/28 09:43:48;;;;;;;6.18;4.70;;;29.00;63.80;;;30.13;44.41;95029.69;5006015;28;20228;-88
2021/06/28 09:46:22;;;;;;;4.78;4.38;;;29.10;63.90;;;30.24;43.82;95030.97;4964257;28;20406;-87
2021/06/28 09:48:53;;;;;;;4.80;4.40;;;29.10;63.00;;;30.34;43.36;95019.84;4923148;28;20237;-87
2021/06/28 09:52:54;;;;;;;5.20;4.70;;;29.30;62.80;;;30.49;42.99;95029.47;5151051;27;20654;-88
2021/06/28 09:55:39;;;;;;;4.78;4.30;;;29.40;63.00;;;30.57;42.68;95024.38;5090227;28;20264;-88
2021/06/28 09:58:22;;;;;;;4.85;4.35;;;29.50;62.60;;;30.63;43.28;95032.00;5038561;28;20232;-89
2021/06/28 10:00:56;;;;;;;4.72;4.32;;;29.60;62.80;;;30.67;42.52;95037.59;5065279;28;20320;-87
2021/06/28 10:03:40;;;;;;;4.93;4.53;;;29.70;62.20;;;30.68;43.04;95033.00;5014405;28;20286;-87
2021/06/28 10:09:02;;;;;;;5.07;4.68;;;29.80;62.00;;;30.66;42.79;95033.28;4916624;29;20238;-88
2021/06/28 10:13:13;;;;;;;4.82;4.43;;;29.80;62.10;;;30.63;43.07;95034.72;5151554;27;20631;-88
2021/06/28 10:15:42;;;;;;;7.95;4.50;;;29.90;62.10;;;30.64;42.17;95036.31;5112824;27;20680;-88
2021/06/28 10:18:10;;;;;;;4.03;3.63;;;29.90;61.70;;;30.69;41.91;95032.66;5074113;28;20214;-87
2021/06/28 10:20:42;;;;;;;8.98;4.45;;;29.90;61.50;;;30.75;41.48;95039.50;5010788;28;21935;-88
2021/06/28 10:23:10;;;;;;;5.25;4.85;;;29.90;61.40;;;30.77;42.18;95031.06;5018409;28;20209;-86
2021/06/28 10:25:38;;;;;;;4.90;4.50;;;29.90;61.40;;;30.80;42.03;95020.41;4934659;28;20271;-87
2021/06/28 10:28:06;;;;;;;4.47;4.07;;;30.00;61.10;;;30.86;41.71;95025.66;4875786;29;20225;-87
2021/06/28 10:30:35;;;;;;;4.95;4.55;;;30.00;61.40;;;30.90;41.56;95023.91;4727159;29;20253;-87
2021/06/28 10:34:55;;;;;;;4.25;3.95;;;30.10;61.30;;;30.96;41.54;95023.41;5137370;27;21001;-88
2021/06/28 10:37:36;;;;;;;4.70;4.30;;;30.10;61.20;;;31.00;41.82;95022.78;5108859;28;20207;-87
2021/06/28 10:40:13;;;;;;;4.85;4.45;;;30.20;61.40;;;31.07;41.29;95023.88;5089761;28;20230;-88
2021/06/28 10:42:43;;;;;;;4.40;3.95;;;30.20;60.80;;;31.12;41.39;95025.66;5053664;28;20704;-88
2021/06/28 10:45:13;;;;;;;4.40;4.10;;;30.20;60.80;;;31.19;41.34;95017.84;4936022;29;20724;-90
2021/06/28 10:48:11;;;;;;;4.38;4.00;;;30.30;60.70;;;31.24;41.62;95009.53;4906232;29;20222;-88
2021/06/28 10:51:05;;;;;;;4.32;3.92;;;30.30;60.70;;;31.35;40.77;95020.84;4772147;29;20268;-89
2021/06/28 10:55:28;;;;;;;4.35;4.03;;;30.40;60.60;;;31.41;40.71;95013.34;5132864;27;20677;-88
2021/06/28 10:57:56;;;;;;;5.50;4.43;;;30.50;60.20;;;31.46;40.36;95010.47;5090546;28;20209;-88
2021/06/28 11:01:06;;;;;;;4.50;4.10;;;30.60;59.90;;;31.44;40.28;95013.50;5081733;28;20224;-89
2021/06/28 11:03:34;;;;;;;4.40;4.00;;;30.60;60.30;;;31.51;40.30;95004.84;5023907;28;20206;-88
2021/06/28 11:06:13;;;;;;;4.70;4.30;;;30.70;60.00;;;31.54;40.65;95006.94;4975590;28;20233;-88
2021/06/28 11:09:00;;;;;;;5.53;3.92;;;30.70;59.90;;;31.56;40.26;95004.66;4860778;29;20241;-87
2021/06/28 11:11:42;;;;;;;4.72;4.32;;;30.70;60.10;;;31.62;40.06;95005.31;4763014;29;20230;-87
2021/06/28 11:16:30;;;;;;;4.22;3.80;;;30.80;60.30;;;31.68;40.32;95006.75;5151190;27;20617;-87
2021/06/28 11:18:57;;;;;;;4.68;4.28;;;30.80;59.80;;;31.72;39.54;95009.59;5088921;28;20719;-87